Time;durP1;ratioP1;P1;durP2;ratioP2;P2;SDS_P1;SDS_P2;PMS_P1;PMS_P2;Temp;Humidity;BMP_temperature;BMP_pressure;BME280_temperature;BME280_humidity;BME280_pressure;Samples;Min_cycle;Max_cycle;Signal;HPM_P1;HPM_P2
2022/10/16 00:00:41;;;;;;;9.82;3.53;;;12.10;99.90;;;;;;7376388;19;20493;-49
2022/10/16 00:03:09;;;;;;;9.05;3.42;;;12.20;99.90;;;;;;7374849;19;20454;-50
2022/10/16 00:05:40;;;;;;;9.40;3.30;;;12.20;99.90;;;;;;7375289;19;20029;-49
2022/10/16 00:08:08;;;;;;;7.13;3.13;;;12.20;99.90;;;;;;7374108;19;20604;-50
2022/10/16 00:10:35;;;;;;;9.70;3.67;;;12.30;99.90;;;;;;7372525;19;20011;-49
2022/10/16 00:13:03;;;;;;;9.25;3.15;;;12.30;99.90;;;;;;7374861;19;20046;-48
2022/10/16 00:15:30;;;;;;;9.13;3.28;;;12.30;99.90;;;;;;7374198;19;20022;-50
2022/10/16 00:17:56;;;;;;;9.20;3.45;;;12.30;99.90;;;;;;7374425;19;20021;-48
2022/10/16 00:20:22;;;;;;;6.82;2.97;;;12.20;99.90;;;;;;7374556;19;20787;-50
2022/10/16 00:23:08;;;;;;;7.85;3.33;;;12.20;99.90;;;;;;7373653;19;20552;-47
2022/10/16 00:25:34;;;;;;;9.25;2.92;;;12.20;99.90;;;;;;7376607;19;20011;-48
2022/10/16 00:28:01;;;;;;;6.70;3.35;;;12.10;99.90;;;;;;7374260;19;20018;-52
2022/10/16 00:30:27;;;;;;;11.18;2.80;;;12.10;99.90;;;;;;7374651;19;20030;-47
2022/10/16 00:32:54;;;;;;;6.22;2.78;;;12.10;99.90;;;;;;7373042;19;20026;-52
2022/10/16 00:35:20;;;;;;;8.05;3.50;;;12.10;99.90;;;;;;7373546;19;20023;-52
2022/10/16 00:37:47;;;;;;;9.55;3.10;;;12.00;99.90;;;;;;7374543;19;20006;-51
2022/10/16 00:40:13;;;;;;;6.28;2.90;;;12.00;99.90;;;;;;7370846;19;20367;-52
2022/10/16 00:42:40;;;;;;;8.00;2.83;;;12.00;99.90;;;;;;7370310;19;20102;-49
2022/10/16 00:45:09;;;;;;;7.93;3.40;;;12.00;99.90;;;;;;7370419;19;20553;-46
2022/10/16 00:47:41;;;;;;;7.10;3.10;;;12.00;99.90;;;;;;7374940;19;20025;-46
2022/10/16 00:50:16;;;;;;;7.35;2.80;;;12.00;99.90;;;;;;7375976;19;20383;-44
2022/10/16 00:52:46;;;;;;;7.78;3.15;;;12.00;99.90;;;;;;7372548;19;20014;-43
2022/10/16 00:55:13;;;;;;;5.88;2.40;;;12.00;99.90;;;;;;7375481;19;20035;-42
2022/10/16 00:57:42;;;;;;;10.95;3.92;;;11.90;99.90;;;;;;7376301;19;20506;-44
2022/10/16 01:00:11;;;;;;;11.57;3.25;;;11.90;99.90;;;;;;7376509;19;20103;-42
2022/10/16 01:02:37;;;;;;;8.48;3.78;;;11.90;99.90;;;;;;7375661;19;20018;-44
2022/10/16 01:05:05;;;;;;;7.50;2.90;;;11.90;99.90;;;;;;7372553;19;20482;-44
2022/10/16 01:07:47;;;;;;;7.20;2.80;;;11.90;99.90;;;;;;7377389;19;20021;-46
2022/10/16 01:10:25;;;;;;;;;;;12.00;99.90;;;;;;7375041;19;20022;-42
2022/10/16 01:13:11;;;;;;;9.02;3.08;;;12.00;99.90;;;;;;7371853;19;19930;-43
2022/10/16 01:15:48;;;;;;;4.68;2.40;;;12.00;99.90;;;;;;7367614;19;20014;-44
2022/10/16 01:18:36;;;;;;;7.75;2.80;;;12.00;99.90;;;;;;7375015;19;20655;-44
2022/10/16 01:21:06;;;;;;;10.35;3.53;;;12.00;99.90;;;;;;7374637;19;20026;-43
2022/10/16 01:23:47;;;;;;;7.55;2.97;;;12.10;99.90;;;;;;7372731;19;20030;-43
2022/10/16 01:26:26;;;;;;;8.32;3.13;;;12.10;99.90;;;;;;7373897;19;20042;-42
2022/10/16 01:29:20;;;;;;;4.80;2.60;;;12.10;99.90;;;;;;7370882;19;20472;-44
2022/10/16 01:31:56;;;;;;;8.25;3.65;;;12.10;99.90;;;;;;7372305;19;20094;-44
2022/10/16 01:34:53;;;;;;;7.97;3.47;;;12.20;99.90;;;;;;7373926;19;20029;-42
2022/10/16 01:37:35;;;;;;;9.15;3.78;;;12.10;99.90;;;;;;7368894;19;20022;-46
2022/10/16 01:40:08;;;;;;;10.57;3.42;;;12.20;99.90;;;;;;7372839;19;20039;-47
2022/10/16 01:42:41;;;;;;;6.72;2.80;;;12.20;99.90;;;;;;7369401;19;20344;-53
2022/10/16 01:45:11;;;;;;;8.15;2.70;;;12.20;99.90;;;;;;7372243;19;20046;-43
2022/10/16 01:47:38;;;;;;;5.97;2.80;;;12.10;99.90;;;;;;7370700;19;20053;-43
2022/10/16 01:50:07;;;;;;;4.80;2.78;;;12.20;99.90;;;;;;7371233;19;20027;-48
2022/10/16 01:52:38;;;;;;;10.38;3.90;;;12.20;99.90;;;;;;7373794;19;20023;-50
2022/10/16 01:55:08;;;;;;;7.93;3.40;;;12.20;99.90;;;;;;7377151;19;20070;-48
2022/10/16 01:57:38;;;;;;;7.22;2.88;;;12.20;99.90;;;;;;7379287;19;21300;-54
2022/10/16 02:00:10;;;;;;;5.85;2.70;;;12.20;99.90;;;;;;7376897;19;20015;-42
2022/10/16 02:02:42;;;;;;;9.23;3.38;;;12.30;99.90;;;;;;7378060;19;20720;-43
2022/10/16 02:05:24;;;;;;;7.93;3.85;;;12.30;99.90;;;;;;7379322;19;20484;-42
2022/10/16 02:07:50;;;;;;;;;;;12.30;99.90;;;;;;7378413;19;20581;-43
2022/10/16 02:10:17;;;;;;;6.03;3.13;;;12.30;99.90;;;;;;7379544;19;20393;-43
2022/10/16 02:13:02;;;;;;;9.25;3.60;;;12.30;99.90;;;;;;7377083;19;20018;-42
2022/10/16 02:15:28;;;;;;;6.53;3.38;;;12.30;99.90;;;;;;7378878;19;20495;-44
2022/10/16 02:17:55;;;;;;;8.20;3.25;;;12.40;99.90;;;;;;7377579;19;20038;-43
2022/10/16 02:20:28;;;;;;;7.13;3.30;;;12.40;99.90;;;;;;7378162;19;20051;-47
2022/10/16 02:22:56;;;;;;;6.90;3.20;;;12.40;99.90;;;;;;7378624;19;20056;-45
2022/10/16 02:25:44;;;;;;;9.90;3.47;;;12.40;99.90;;;;;;7380749;19;20022;-44
2022/10/16 02:28:21;;;;;;;6.32;2.97;;;12.40;99.90;;;;;;7377206;19;20017;-42
2022/10/16 02:30:59;;;;;;;5.78;3.55;;;12.40;99.90;;;;;;7375086;19;20042;-44
2022/10/16 02:33:28;;;;;;;8.55;3.25;;;12.40;99.90;;;;;;7378719;19;20052;-45
2022/10/16 02:35:57;;;;;;;7.20;4.47;;;12.50;99.90;;;;;;7375487;19;20076;-44
2022/10/16 02:38:25;;;;;;;5.72;3.05;;;12.50;99.90;;;;;;7379034;19;20038;-43
2022/10/16 02:40:52;;;;;;;8.65;3.35;;;12.50;99.90;;;;;;7377295;19;20019;-45
2022/10/16 02:43:19;;;;;;;6.95;4.10;;;12.50;99.90;;;;;;7374201;19;20018;-45
2022/10/16 02:45:45;;;;;;;6.72;3.55;;;12.60;99.90;;;;;;7376140;19;20473;-47
2022/10/16 02:48:12;;;;;;;6.85;3.35;;;12.60;99.90;;;;;;7374735;19;20706;-48
2022/10/16 02:50:38;;;;;;;10.63;3.33;;;12.60;99.90;;;;;;7377722;19;20019;-50
2022/10/16 02:53:05;;;;;;;7.03;3.55;;;12.60;99.90;;;;;;7378236;19;20015;-49
2022/10/16 02:55:32;;;;;;;5.78;3.50;;;12.70;99.90;;;;;;7372323;19;20082;-52
2022/10/16 02:57:59;;;;;;;6.85;3.83;;;12.70;99.90;;;;;;7377653;19;20387;-52
2022/10/16 03:00:26;;;;;;;7.28;3.55;;;12.70;99.90;;;;;;7377266;19;20385;-53
2022/10/16 03:02:54;;;;;;;6.10;3.60;;;12.70;99.90;;;;;;7375433;19;20015;-45
2022/10/16 03:05:21;;;;;;;7.32;2.97;;;12.70;99.90;;;;;;7377357;19;20047;-52
2022/10/16 03:07:47;;;;;;;5.47;3.13;;;12.70;99.90;;;;;;7376746;19;20023;-47
2022/10/16 03:10:14;;;;;;;6.70;3.00;;;12.80;99.90;;;;;;7378054;19;20047;-50
2022/10/16 03:12:41;;;;;;;6.88;3.10;;;12.80;99.90;;;;;;7376545;19;20026;-48
2022/10/16 03:15:08;;;;;;;6.32;3.15;;;12.80;99.90;;;;;;7376354;19;20018;-48
2022/10/16 03:17:35;;;;;;;7.55;3.78;;;12.80;99.90;;;;;;7373693;19;20124;-54
2022/10/16 03:20:03;;;;;;;8.60;3.50;;;12.70;99.90;;;;;;7376537;19;20018;-50
2022/10/16 03:22:29;;;;;;;6.85;3.40;;;12.80;99.90;;;;;;7377020;19;20023;-51
2022/10/16 03:24:56;;;;;;;8.40;3.50;;;12.80;99.90;;;;;;7375735;19;20015;-52
2022/10/16 03:27:23;;;;;;;5.15;3.50;;;12.80;99.90;;;;;;7371952;19;20019;-51
2022/10/16 03:29:50;;;;;;;6.75;3.58;;;12.80;99.90;;;;;;7377411;19;20025;-48
2022/10/16 03:32:16;;;;;;;7.35;3.42;;;12.90;99.90;;;;;;7374808;19;20864;-51
2022/10/16 03:34:43;;;;;;;7.32;3.40;;;12.80;99.90;;;;;;7373808;19;20029;-47
2022/10/16 03:37:10;;;;;;;7.93;3.58;;;12.80;99.90;;;;;;7378311;19;20027;-49
2022/10/16 03:39:36;;;;;;;6.38;3.35;;;12.80;99.90;;;;;;7376550;19;20018;-45
2022/10/16 03:42:03;;;;;;;7.57;3.83;;;12.80;99.90;;;;;;7376908;19;20019;-45
2022/10/16 03:44:30;;;;;;;5.88;3.80;;;12.80;99.90;;;;;;7373560;19;20085;-43
2022/10/16 03:46:56;;;;;;;7.90;4.05;;;12.80;99.90;;;;;;7374394;19;20373;-43
2022/10/16 03:49:23;;;;;;;8.95;3.83;;;12.70;99.90;;;;;;7374927;19;20866;-43
2022/10/16 03:51:49;;;;;;;5.45;3.55;;;12.80;99.90;;;;;;7377299;19;20485;-40
2022/10/16 03:54:16;;;;;;;6.25;3.50;;;12.70;99.90;;;;;;7373781;19;20020;-47
2022/10/16 03:56:42;;;;;;;8.13;4.47;;;12.80;99.90;;;;;;7373477;19;20022;-45
2022/10/16 03:59:09;;;;;;;6.60;3.88;;;12.70;99.90;;;;;;7375808;19;20055;-45
2022/10/16 04:01:36;;;;;;;8.35;3.95;;;12.70;99.90;;;;;;7375834;19;20020;-43
2022/10/16 04:04:03;;;;;;;6.72;3.75;;;12.60;99.90;;;;;;7373589;19;20057;-44
2022/10/16 04:06:29;;;;;;;5.63;3.95;;;12.50;99.90;;;;;;7374462;19;20014;-43
2022/10/16 04:08:56;;;;;;;7.57;4.43;;;12.50;99.90;;;;;;7376788;19;20399;-45
2022/10/16 04:11:22;;;;;;;6.28;4.20;;;12.40;99.90;;;;;;7377940;19;20474;-43
2022/10/16 04:13:49;;;;;;;6.95;5.13;;;12.50;99.90;;;;;;7372597;19;20027;-45
2022/10/16 04:16:15;;;;;;;6.43;3.90;;;12.40;99.90;;;;;;7371485;19;20594;-44
2022/10/16 04:18:42;;;;;;;6.53;4.53;;;12.40;99.90;;;;;;7374427;19;20044;-43
2022/10/16 04:21:09;;;;;;;9.02;4.40;;;12.40;99.90;;;;;;7372433;19;20017;-46
2022/10/16 04:23:36;;;;;;;7.90;5.22;;;12.40;99.90;;;;;;7373808;19;20364;-44
2022/10/16 04:26:03;;;;;;;10.13;5.20;;;12.30;99.90;;;;;;7376384;19;20488;-43
2022/10/16 04:28:29;;;;;;;8.13;4.50;;;12.30;99.90;;;;;;7374654;19;20014;-43
2022/10/16 04:30:56;;;;;;;8.30;4.70;;;12.30;99.90;;;;;;7372467;19;20015;-42
2022/10/16 04:33:22;;;;;;;10.75;4.80;;;12.20;99.90;;;;;;7375274;19;20439;-44
2022/10/16 04:35:56;;;;;;;8.02;5.00;;;12.20;99.90;;;;;;7366327;19;20024;-43
2022/10/16 04:38:23;;;;;;;7.68;4.82;;;12.20;99.90;;;;;;7373231;19;20019;-42
2022/10/16 04:40:49;;;;;;;5.78;4.50;;;12.20;99.90;;;;;;7374747;19;20726;-44
2022/10/16 04:43:16;;;;;;;8.00;5.60;;;12.10;99.90;;;;;;7373140;19;20398;-44
2022/10/16 04:45:42;;;;;;;9.73;5.47;;;12.10;99.90;;;;;;7371346;19;20688;-44
2022/10/16 04:48:09;;;;;;;8.48;4.72;;;12.10;99.90;;;;;;7374158;19;20116;-44
2022/10/16 04:50:36;;;;;;;6.90;5.28;;;12.10;99.90;;;;;;7375503;19;20414;-43
2022/10/16 04:53:07;;;;;;;9.13;5.15;;;12.20;99.90;;;;;;7377125;19;20345;-42
2022/10/16 04:55:33;;;;;;;6.25;4.72;;;12.20;99.90;;;;;;7373362;19;20451;-41
2022/10/16 04:57:59;;;;;;;9.00;5.60;;;12.20;99.90;;;;;;7371288;19;20495;-43
2022/10/16 05:00:26;;;;;;;10.32;5.80;;;12.30;99.90;;;;;;7367960;19;20048;-41
2022/10/16 05:02:53;;;;;;;8.07;5.40;;;12.30;99.90;;;;;;7370955;19;20452;-42
2022/10/16 05:05:20;;;;;;;7.97;5.43;;;12.30;99.90;;;;;;7371165;19;20347;-46
2022/10/16 05:07:47;;;;;;;8.00;5.93;;;12.30;99.90;;;;;;7367958;19;20757;-42
2022/10/16 05:10:17;;;;;;;8.02;5.38;;;12.30;99.90;;;;;;7373839;19;20011;-44
2022/10/16 05:12:44;;;;;;;9.68;5.72;;;12.40;99.90;;;;;;7372364;19;20019;-43
2022/10/16 05:15:11;;;;;;;7.60;5.40;;;12.40;99.90;;;;;;7371369;19;20078;-42
2022/10/16 05:17:37;;;;;;;7.50;5.00;;;12.30;99.90;;;;;;7367635;19;20018;-44
2022/10/16 05:20:05;;;;;;;6.95;5.10;;;12.30;99.90;;;;;;7374656;19;20018;-44
2022/10/16 05:22:32;;;;;;;8.43;4.82;;;12.30;99.90;;;;;;7374567;19;20022;-43
2022/10/16 05:24:58;;;;;;;9.77;5.40;;;12.30;99.90;;;;;;7373349;19;20018;-56
2022/10/16 05:27:25;;;;;;;6.60;5.18;;;12.30;99.90;;;;;;7370663;19;20107;-45
2022/10/16 05:29:51;;;;;;;9.23;5.85;;;12.30;99.90;;;;;;7372249;19;20023;-42
2022/10/16 05:32:18;;;;;;;6.70;5.20;;;12.20;99.90;;;;;;7373390;19;20359;-43
2022/10/16 05:34:45;;;;;;;9.85;5.78;;;12.20;99.90;;;;;;7370101;19;20052;-41
2022/10/16 05:37:12;;;;;;;9.80;6.22;;;12.20;99.90;;;;;;7370822;19;20365;-41
2022/10/16 05:39:39;;;;;;;8.80;5.63;;;12.20;99.90;;;;;;7368281;19;20069;-43
2022/10/16 05:42:06;;;;;;;8.05;5.70;;;12.20;99.90;;;;;;7374655;19;20419;-42
2022/10/16 05:44:32;;;;;;;7.57;5.57;;;12.20;99.90;;;;;;7366620;19;20098;-42
2022/10/16 05:46:59;;;;;;;9.10;6.20;;;12.20;99.90;;;;;;7368585;19;20018;-43
2022/10/16 05:49:25;;;;;;;8.65;5.35;;;12.20;99.90;;;;;;7369583;19;20484;-41
2022/10/16 05:51:52;;;;;;;6.53;5.22;;;12.30;99.90;;;;;;7371353;19;20030;-46
2022/10/16 05:54:19;;;;;;;8.48;5.28;;;12.30;99.90;;;;;;7373244;19;20022;-44
2022/10/16 05:56:45;;;;;;;10.93;6.25;;;12.30;99.90;;;;;;7371986;19;20113;-42
2022/10/16 05:59:12;;;;;;;8.55;6.03;;;12.30;99.90;;;;;;7371558;19;20014;-43
2022/10/16 06:01:38;;;;;;;7.18;4.63;;;12.30;99.90;;;;;;7371070;19;20053;-44
2022/10/16 06:04:05;;;;;;;6.88;5.05;;;12.30;99.90;;;;;;7368850;19;20417;-43
2022/10/16 06:06:31;;;;;;;7.78;4.65;;;12.30;99.90;;;;;;7368653;19;20018;-42
2022/10/16 06:08:59;;;;;;;10.05;4.70;;;12.30;99.90;;;;;;7369955;19;20018;-53
2022/10/16 06:11:28;;;;;;;9.60;4.85;;;12.30;99.90;;;;;;7372705;19;20049;-43
2022/10/16 06:13:59;;;;;;;10.50;4.95;;;12.30;99.90;;;;;;7363525;19;20375;-51
2022/10/16 06:16:26;;;;;;;8.70;4.18;;;12.30;99.90;;;;;;7370129;19;20022;-49
2022/10/16 06:18:55;;;;;;;8.55;4.60;;;12.30;99.90;;;;;;7372215;19;20068;-51
2022/10/16 06:21:27;;;;;;;8.77;4.53;;;12.30;99.90;;;;;;7371289;19;20015;-49
2022/10/16 06:23:55;;;;;;;6.63;4.03;;;12.30;99.90;;;;;;7369998;19;20500;-50
2022/10/16 06:26:24;;;;;;;8.05;3.97;;;12.40;99.90;;;;;;7369314;19;20025;-50
2022/10/16 06:28:51;;;;;;;5.75;4.30;;;12.40;99.90;;;;;;7370296;19;20019;-41
2022/10/16 06:31:18;;;;;;;9.35;5.18;;;12.40;99.90;;;;;;7372152;19;20117;-44
2022/10/16 06:33:46;;;;;;;7.03;4.00;;;12.40;99.90;;;;;;7373059;19;20551;-42
2022/10/16 06:36:15;;;;;;;6.55;3.70;;;12.50;99.90;;;;;;7372349;19;20023;-41
2022/10/16 06:38:42;;;;;;;5.60;4.00;;;12.50;99.90;;;;;;7371420;19;20018;-41
2022/10/16 06:41:12;;;;;;;6.13;3.90;;;12.50;99.90;;;;;;7374924;19;20115;-49
2022/10/16 06:43:39;;;;;;;6.70;3.70;;;12.50;99.90;;;;;;7375292;19;20021;-48
2022/10/16 06:46:08;;;;;;;13.55;3.65;;;12.60;99.90;;;;;;7375037;19;20390;-50
2022/10/16 06:48:35;;;;;;;5.47;3.53;;;12.60;99.90;;;;;;7377049;19;20018;-54
2022/10/16 06:51:21;;;;;;;7.70;3.65;;;12.60;99.90;;;;;;7378758;19;20765;-48
2022/10/16 06:53:53;;;;;;;6.47;3.38;;;12.70;99.90;;;;;;7379128;19;20088;-48
2022/10/16 06:56:25;;;;;;;8.73;4.78;;;12.70;99.90;;;;;;7376554;19;20350;-48
2022/10/16 06:58:53;;;;;;;7.03;3.50;;;12.70;99.90;;;;;;7374429;19;20107;-46
2022/10/16 07:01:23;;;;;;;5.35;3.33;;;12.70;99.90;;;;;;7377966;19;20018;-44
2022/10/16 07:03:50;;;;;;;8.07;3.47;;;12.70;99.90;;;;;;7375148;19;20047;-46
2022/10/16 07:06:21;;;;;;;7.82;3.00;;;12.70;99.90;;;;;;7375938;19;20054;-49
2022/10/16 07:08:48;;;;;;;6.32;3.38;;;12.80;99.90;;;;;;7375887;19;20022;-54
2022/10/16 07:11:20;;;;;;;8.50;3.33;;;12.80;99.90;;;;;;7378324;19;20027;-45
2022/10/16 07:13:47;;;;;;;4.05;3.00;;;12.80;99.90;;;;;;7379551;19;20014;-49
2022/10/16 07:16:16;;;;;;;5.93;3.40;;;12.80;99.90;;;;;;7375028;19;20014;-48
2022/10/16 07:18:45;;;;;;;5.90;3.20;;;12.90;99.90;;;;;;7378285;19;20023;-46
2022/10/16 07:21:19;;;;;;;7.88;3.25;;;12.90;99.90;;;;;;7377394;19;20674;-49
2022/10/16 07:23:50;;;;;;;9.18;3.00;;;13.00;99.90;;;;;;7379948;19;20046;-50
2022/10/16 07:26:17;;;;;;;;;;;13.00;99.90;;;;;;7376046;19;20517;-48
2022/10/16 07:28:44;;;;;;;9.10;3.85;;;13.10;99.90;;;;;;7372500;19;20262;-46
2022/10/16 07:31:14;;;;;;;7.13;2.92;;;13.10;99.90;;;;;;7370317;19;20376;-47
2022/10/16 07:33:43;;;;;;;5.57;3.38;;;13.20;99.90;;;;;;7373386;19;20879;-44
2022/10/16 07:36:09;;;;;;;6.28;3.03;;;13.30;99.90;;;;;;7372536;19;20053;-49
2022/10/16 07:38:35;;;;;;;7.18;2.63;;;13.30;99.90;;;;;;7371940;19;20098;-45
2022/10/16 07:41:07;;;;;;;5.07;2.65;;;13.40;99.90;;;;;;7369475;19;20021;-44
2022/10/16 07:43:33;;;;;;;8.75;4.78;;;13.40;99.90;;;;;;7369512;19;20074;-45
2022/10/16 07:46:01;;;;;;;5.45;2.70;;;13.40;99.90;;;;;;7368916;19;20026;-45
2022/10/16 07:48:30;;;;;;;7.32;2.72;;;13.40;99.90;;;;;;7372451;19;20033;-46
2022/10/16 07:51:06;;;;;;;5.38;2.30;;;13.40;99.90;;;;;;7372921;19;20018;-45
2022/10/16 07:53:33;;;;;;;7.97;2.35;;;13.40;99.90;;;;;;7372761;19;20018;-45
2022/10/16 07:56:05;;;;;;;5.88;2.33;;;13.40;99.90;;;;;;7372226;19;20041;-46
2022/10/16 07:58:32;;;;;;;8.85;3.33;;;13.40;99.90;;;;;;7377072;19;20408;-45
2022/10/16 08:01:03;;;;;;;6.07;2.42;;;13.40;99.90;;;;;;7378373;19;20127;-45
2022/10/16 08:03:30;;;;;;;8.70;2.80;;;13.50;99.90;;;;;;7377955;19;20025;-45
2022/10/16 08:05:57;;;;;;;6.80;2.40;;;13.50;99.90;;;;;;7368886;19;20298;-46
2022/10/16 08:08:24;;;;;;;7.20;2.08;;;13.60;99.90;;;;;;7373009;19;20370;-48
2022/10/16 08:10:50;;;;;;;6.30;2.50;;;13.70;99.90;;;;;;7372065;19;20095;-47
2022/10/16 08:13:17;;;;;;;3.45;1.65;;;13.70;99.90;;;;;;7375342;19;20039;-48
2022/10/16 08:15:45;;;;;;;4.20;1.70;;;13.90;99.90;;;;;;7367932;19;20018;-46
2022/10/16 08:18:14;;;;;;;4.50;1.88;;;14.00;99.90;;;;;;7367646;19;20018;-46
2022/10/16 08:20:42;;;;;;;5.05;1.83;;;14.20;99.90;;;;;;7365385;19;20018;-51
2022/10/16 08:23:13;;;;;;;5.18;1.77;;;14.30;99.90;;;;;;7369617;19;20039;-45
2022/10/16 08:25:40;;;;;;;5.72;1.70;;;14.20;99.90;;;;;;7373776;19;20021;-44
2022/10/16 08:28:10;;;;;;;3.42;1.20;;;14.30;99.90;;;;;;7368837;19;20026;-48
2022/10/16 08:30:36;;;;;;;4.45;0.90;;;14.30;99.90;;;;;;7372619;19;20018;-45
2022/10/16 08:33:03;;;;;;;3.30;1.27;;;14.40;99.90;;;;;;7371189;19;20026;-47
2022/10/16 08:35:30;;;;;;;7.40;2.35;;;14.60;99.90;;;;;;7373499;19;20025;-47
2022/10/16 08:37:56;;;;;;;6.63;1.50;;;14.70;99.90;;;;;;7371446;19;20026;-47
2022/10/16 08:40:31;;;;;;;4.40;1.35;;;15.10;99.90;;;;;;7375245;19;20023;-46
2022/10/16 08:43:17;;;;;;;3.92;1.58;;;15.20;99.90;;;;;;7371067;19;20052;-48
2022/10/16 08:45:55;;;;;;;6.45;2.80;;;15.20;99.90;;;;;;7372665;19;20741;-45
2022/10/16 08:48:34;;;;;;;4.90;1.92;;;15.20;99.90;;;;;;7372044;19;20022;-48
2022/10/16 08:51:02;;;;;;;6.47;2.03;;;15.30;99.90;;;;;;7375661;19;20022;-48
2022/10/16 08:53:36;;;;;;;3.95;1.98;;;15.50;99.90;;;;;;7373081;19;20538;-46
2022/10/16 08:56:03;;;;;;;6.88;1.90;;;15.80;99.90;;;;;;7374933;19;20010;-47
2022/10/16 08:58:30;;;;;;;8.38;2.58;;;16.20;99.90;;;;;;7366674;19;20153;-44
2022/10/16 09:01:01;;;;;;;4.93;2.13;;;16.80;99.90;;;;;;7369079;19;20601;-48
2022/10/16 09:03:27;;;;;;;5.95;2.08;;;17.40;99.90;;;;;;7368558;19;20022;-47
2022/10/16 09:05:58;;;;;;;6.53;2.30;;;17.90;99.90;;;;;;7371948;19;20019;-46
2022/10/16 09:08:45;;;;;;;6.43;2.00;;;18.10;99.90;;;;;;7375345;19;20100;-45
2022/10/16 09:11:43;;;;;;;6.18;2.15;;;18.30;99.90;;;;;;7371908;19;20047;-46
2022/10/16 09:14:29;;;;;;;7.50;2.45;;;18.50;99.90;;;;;;7365653;19;21092;-48
2022/10/16 09:17:03;;;;;;;7.10;1.92;;;18.80;99.90;;;;;;7368511;19;20025;-46
2022/10/16 09:19:40;;;;;;;6.82;1.67;;;19.30;99.90;;;;;;7365784;19;20037;-45
2022/10/16 09:22:15;;;;;;;6.28;1.65;;;19.30;99.90;;;;;;7370442;19;20023;-46
2022/10/16 09:24:42;;;;;;;6.03;2.08;;;19.30;99.90;;;;;;7369425;19;20030;-50
2022/10/16 09:27:12;;;;;;;10.50;2.17;;;19.30;99.90;;;;;;7368805;19;20022;-47
2022/10/16 09:29:40;;;;;;;6.90;1.73;;;19.40;99.90;;;;;;7371221;19;20015;-45
2022/10/16 09:32:28;;;;;;;6.55;2.40;;;19.30;99.90;;;;;;7367702;19;20022;-47
2022/10/16 09:34:57;;;;;;;5.88;1.50;;;19.40;99.90;;;;;;7364673;19;20516;-47
2022/10/16 09:37:24;;;;;;;6.75;2.03;;;19.70;99.90;;;;;;7371652;19;20023;-47
2022/10/16 09:39:53;;;;;;;7.47;1.75;;;19.70;99.90;;;;;;7367645;19;20022;-49
2022/10/16 09:42:31;;;;;;;8.55;1.67;;;20.00;99.90;;;;;;7371733;19;20458;-46
2022/10/16 09:44:58;;;;;;;7.85;2.28;;;20.00;99.90;;;;;;7368330;19;20054;-49
2022/10/16 09:47:27;;;;;;;9.23;2.47;;;20.00;99.90;;;;;;7364965;19;20141;-46
2022/10/16 09:50:01;;;;;;;7.68;2.15;;;20.50;99.90;;;;;;7368922;19;20022;-45
2022/10/16 09:52:32;;;;;;;9.60;2.60;;;20.00;99.90;;;;;;7365418;19;20015;-47
2022/10/16 09:55:01;;;;;;;11.30;2.33;;;20.10;99.90;;;;;;7367455;19;20023;-45
2022/10/16 09:57:27;;;;;;;7.15;2.55;;;20.00;99.90;;;;;;7370854;19;20027;-46
2022/10/16 09:59:56;;;;;;;8.35;2.15;;;20.20;99.90;;;;;;7364025;19;20447;-46
2022/10/16 10:02:43;;;;;;;8.25;2.10;;;20.20;99.90;;;;;;7366876;19;20078;-51
2022/10/16 10:05:27;;;;;;;8.48;2.05;;;20.50;99.90;;;;;;7366036;19;20018;-46
2022/10/16 10:08:05;;;;;;;8.48;2.05;;;20.60;99.90;;;;;;7367193;19;20027;-47
2022/10/16 10:10:42;;;;;;;10.35;2.55;;;20.70;99.90;;;;;;7369644;19;20010;-45
2022/10/16 10:13:29;;;;;;;9.63;2.83;;;20.20;99.90;;;;;;7362897;19;20595;-47
2022/10/16 10:15:55;;;;;;;9.88;2.25;;;20.90;99.90;;;;;;7371327;19;20014;-46
2022/10/16 10:18:23;;;;;;;6.70;1.88;;;20.60;99.90;;;;;;7378079;19;20561;-45
2022/10/16 10:21:05;;;;;;;7.80;2.38;;;20.20;99.90;;;;;;7374336;19;20463;-45
2022/10/16 10:23:31;;;;;;;8.43;3.03;;;20.60;99.90;;;;;;7378081;19;20019;-46
2022/10/16 10:26:20;;;;;;;6.25;2.22;;;21.40;99.90;;;;;;7378540;19;20018;-49
2022/10/16 10:29:12;;;;;;;5.93;1.50;;;21.20;99.90;;;;;;7375417;19;20581;-50
2022/10/16 10:32:13;;;;;;;12.20;2.35;;;20.50;99.90;;;;;;7376888;19;20039;-45
2022/10/16 10:34:52;;;;;;;8.65;2.05;;;20.80;99.90;;;;;;7368443;19;20031;-49
2022/10/16 10:37:27;;;;;;;9.00;2.53;;;20.20;99.90;;;;;;7367735;19;20456;-49
2022/10/16 10:40:19;;;;;;;9.00;3.00;;;19.80;99.90;;;;;;7374267;19;20014;-48
2022/10/16 10:43:18;;;;;;;10.38;2.22;;;20.50;99.90;;;;;;7369568;19;20014;-47
2022/10/16 10:45:57;;;;;;;11.38;2.10;;;21.30;99.90;;;;;;7375904;19;20110;-47
2022/10/16 10:48:48;;;;;;;10.80;2.33;;;21.30;99.90;;;;;;7371250;19;20622;-50
2022/10/16 10:51:38;;;;;;;8.43;2.00;;;21.90;99.90;;;;;;7379605;19;20030;-47
2022/10/16 10:54:28;;;;;;;9.13;2.58;;;21.90;99.90;;;;;;7377228;19;20366;-46
2022/10/16 10:57:03;;;;;;;10.48;2.10;;;20.90;99.90;;;;;;7377597;19;20748;-50
2022/10/16 10:59:58;;;;;;;10.35;2.25;;;20.80;99.90;;;;;;7370400;19;20018;-51
2022/10/16 11:02:24;;;;;;;8.63;2.13;;;20.80;99.90;;;;;;7371041;19;20170;-46
2022/10/16 11:05:41;;;;;;;10.68;2.40;;;20.20;99.90;;;;;;7373030;19;20022;-47
2022/10/16 11:08:17;;;;;;;9.82;1.88;;;19.60;99.90;;;;;;7372096;19;20124;-46
2022/10/16 11:10:50;;;;;;;8.05;1.95;;;20.50;99.90;;;;;;7372103;19;20386;-47
2022/10/16 11:13:30;;;;;;;9.13;2.17;;;20.80;99.90;;;;;;7371388;19;20029;-46
2022/10/16 11:16:22;;;;;;;7.15;2.00;;;20.50;99.90;;;;;;7370380;19;20022;-46
2022/10/16 11:19:07;;;;;;;;;;;21.10;99.90;;;;;;7367811;19;20074;-47
2022/10/16 11:21:43;;;;;;;6.50;1.67;;;21.20;99.90;;;;;;7374518;19;19959;-50
2022/10/16 11:24:39;;;;;;;8.68;1.75;;;21.70;99.90;;;;;;7372404;19;20392;-50
2022/10/16 11:27:10;;;;;;;8.15;1.80;;;22.20;99.90;;;;;;7374976;19;20628;-48
2022/10/16 11:29:46;;;;;;;8.00;2.03;;;22.70;99.90;;;;;;7365653;19;20014;-48
2022/10/16 11:32:30;;;;;;;9.75;2.50;;;22.20;99.90;;;;;;7366442;19;20541;-50
2022/10/16 11:35:10;;;;;;;8.55;2.35;;;21.00;99.90;;;;;;7370807;19;20614;-46
2022/10/16 11:37:43;;;;;;;6.57;2.10;;;20.00;99.90;;;;;;7372073;19;20022;-47
2022/10/16 11:40:24;;;;;;;9.20;2.40;;;20.80;99.90;;;;;;7372731;19;20354;-50
2022/10/16 11:43:02;;;;;;;11.30;2.45;;;21.30;99.90;;;;;;7372022;19;20039;-46
2022/10/16 11:45:43;;;;;;;8.68;1.67;;;21.50;99.90;;;;;;7374803;19;20023;-48
2022/10/16 11:48:12;;;;;;;;;;;21.10;99.90;;;;;;7376944;19;20506;-47
2022/10/16 11:50:49;;;;;;;7.05;3.47;;;21.30;99.90;;;;;;7375269;19;19926;-46
2022/10/16 11:53:30;;;;;;;10.43;4.45;;;21.90;99.90;;;;;;7376492;19;20024;-47
2022/10/16 11:55:56;;;;;;;10.40;2.55;;;22.90;99.90;;;;;;7376435;19;20015;-46
2022/10/16 11:58:43;;;;;;;10.45;2.00;;;23.10;99.90;;;;;;7370556;19;20664;-46
2022/10/16 12:01:28;;;;;;;8.10;2.03;;;22.60;97.40;;;;;;7372559;19;20018;-47
2022/10/16 12:04:15;;;;;;;8.55;2.28;;;22.30;96.90;;;;;;7370627;19;20026;-46
2022/10/16 12:07:05;;;;;;;9.65;2.45;;;22.80;97.80;;;;;;7368976;19;20019;-48
2022/10/16 12:09:36;;;;;;;10.38;2.40;;;22.50;97.70;;;;;;7369875;19;21496;-51
2022/10/16 12:12:03;;;;;;;7.50;2.95;;;21.90;96.60;;;;;;7370373;19;20382;-49
2022/10/16 12:14:33;;;;;;;9.50;2.70;;;22.40;98.10;;;;;;7372444;19;20049;-49
2022/10/16 12:17:05;;;;;;;9.30;2.13;;;22.60;97.30;;;;;;7373256;19;20023;-46
2022/10/16 12:19:32;;;;;;;9.50;1.90;;;23.10;95.90;;;;;;7371199;19;20033;-46
2022/10/16 12:22:01;;;;;;;8.95;1.92;;;22.70;95.80;;;;;;7371331;19;20036;-47
2022/10/16 12:24:44;;;;;;;10.30;1.95;;;22.20;95.40;;;;;;7373638;19;20018;-46
2022/10/16 12:27:32;;;;;;;9.38;1.80;;;22.40;95.20;;;;;;7371263;19;20018;-47
2022/10/16 12:30:06;;;;;;;8.35;1.85;;;22.80;96.10;;;;;;7371399;19;20038;-48
2022/10/16 12:32:40;;;;;;;7.35;1.92;;;23.10;95.00;;;;;;7365270;19;20022;-49
2022/10/16 12:35:19;;;;;;;10.93;2.80;;;22.40;93.50;;;;;;7365471;19;20399;-50
2022/10/16 12:37:46;;;;;;;9.73;2.05;;;21.90;94.60;;;;;;7367924;19;20477;-50
2022/10/16 12:40:16;;;;;;;9.23;2.05;;;22.80;95.00;;;;;;7370475;19;20014;-47
2022/10/16 12:42:43;;;;;;;8.57;1.57;;;23.10;93.60;;;;;;7374067;19;20021;-50
2022/10/16 12:45:31;;;;;;;6.38;1.63;;;23.30;93.10;;;;;;7367525;19;20034;-47
2022/10/16 12:47:59;;;;;;;8.02;2.13;;;23.40;91.70;;;;;;7368926;19;20029;-46
2022/10/16 12:50:33;;;;;;;7.93;1.77;;;23.60;92.40;;;;;;7364005;19;20025;-47
2022/10/16 12:53:02;;;;;;;7.40;2.15;;;24.00;91.70;;;;;;7370027;19;20026;-45
2022/10/16 12:55:43;;;;;;;5.70;1.50;;;24.10;91.90;;;;;;7369025;19;20018;-45
2022/10/16 12:58:42;;;;;;;8.02;1.63;;;24.40;91.90;;;;;;7368885;19;20018;-45
2022/10/16 13:01:19;;;;;;;8.70;1.98;;;24.30;87.00;;;;;;7367314;19;20018;-45
2022/10/16 13:04:00;;;;;;;4.97;1.50;;;24.20;86.10;;;;;;7370730;19;20018;-47
2022/10/16 13:06:39;;;;;;;7.38;1.60;;;24.10;84.80;;;;;;7366756;19;20034;-45
2022/10/16 13:09:23;;;;;;;9.85;2.38;;;24.00;82.90;;;;;;7368298;19;20025;-47
2022/10/16 13:12:15;;;;;;;9.18;1.88;;;24.00;84.60;;;;;;7370307;19;20023;-46